TOM1CX EGCC-LEPA
Flight info
| Callsign | TOM1CX |
|---|---|
| Flight time | 2h 21m |
| Altitude | 35000 |
| Route | ASMIM P16 NOKIN P17 BEPHE DCT OSSEP DCT ELNIF DCT ZESPE DCT KLAKI DCT MANIG DCT BADUR DCT KORER UM616 TUPAR DCT CNA DCT SECHE DCT AGN DCT TOU DCT LOMRA DCT ROCAN DCT IBRAP DCT LUKEV N13 LORES |
| Aircraft | B738/M-SDE2E3FGHIRWXY/LB1 |
Departure
| Time | 2026-05-06 13:45 |
|---|---|
| Airport | Manchester Airport (EGCC) |
Arrival
| Time | 2026-05-06 16:07 |
|---|---|
| Airport | Palma de Mallorca Airport (LEPA) |
| Time | Latitude | Longitude | Altitude | Speed | Heading |
|---|---|---|---|---|---|
| 2026-05-06 13:03 | 53.35841 | -2.27407 | 254 ft | 0 kts | 286° |
| 2026-05-06 13:37 | 53.35838 | -2.27390 | 254 ft | 4 kts | 286° |
| 2026-05-06 13:37 | 53.35832 | -2.27353 | 254 ft | 4 kts | 281° |
| 2026-05-06 13:37 | 53.35833 | -2.27322 | 254 ft | 4 kts | 204° |
| 2026-05-06 13:37 | 53.35858 | -2.27317 | 254 ft | 3 kts | 179° |
| 2026-05-06 13:38 | 53.35882 | -2.27317 | 254 ft | 2 kts | 179° |
| 2026-05-06 13:38 | 53.35884 | -2.27317 | 254 ft | 0 kts | 179° |
| 2026-05-06 13:40 | 53.35878 | -2.27317 | 254 ft | 3 kts | 177° |
| 2026-05-06 13:41 | 53.35841 | -2.27315 | 254 ft | 7 kts | 179° |
| 2026-05-06 13:41 | 53.35780 | -2.27343 | 254 ft | 13 kts | 222° |
| 2026-05-06 13:41 | 53.35718 | -2.27466 | 254 ft | 14 kts | 231° |
| 2026-05-06 13:41 | 53.35635 | -2.27627 | 244 ft | 21 kts | 225° |
| 2026-05-06 13:42 | 53.35525 | -2.27814 | 237 ft | 23 kts | 222° |
| 2026-05-06 13:42 | 53.35410 | -2.27996 | 237 ft | 22 kts | 224° |
| 2026-05-06 13:42 | 53.35299 | -2.28175 | 235 ft | 22 kts | 225° |
| 2026-05-06 13:42 | 53.35197 | -2.28373 | 229 ft | 23 kts | 231° |
| 2026-05-06 13:43 | 53.35093 | -2.28588 | 228 ft | 23 kts | 231° |
| 2026-05-06 13:43 | 53.34988 | -2.28787 | 225 ft | 22 kts | 225° |
| 2026-05-06 13:43 | 53.34916 | -2.28908 | 225 ft | 12 kts | 230° |
| 2026-05-06 13:43 | 53.34842 | -2.29046 | 219 ft | 20 kts | 229° |
| 2026-05-06 13:44 | 53.34745 | -2.29237 | 219 ft | 23 kts | 231° |
| 2026-05-06 13:44 | 53.34617 | -2.29343 | 217 ft | 21 kts | 178° |
| 2026-05-06 13:44 | 53.34548 | -2.29211 | 220 ft | 14 kts | 68° |
| 2026-05-06 13:44 | 53.34609 | -2.29077 | 214 ft | 17 kts | 52° |
| 2026-05-06 13:45 | 53.34797 | -2.28686 | 228 ft | 82 kts | 51° |
| 2026-05-06 13:45 | 53.36065 | -2.26063 | 888 ft | 168 kts | 50° |
| 2026-05-06 13:45 | 53.36814 | -2.24520 | 1849 ft | 177 kts | 50° |
| 2026-05-06 13:46 | 53.37660 | -2.22784 | 2344 ft | 207 kts | 50° |
| 2026-05-06 13:46 | 53.38753 | -2.21047 | 2791 ft | 226 kts | 26° |
| 2026-05-06 13:46 | 53.40370 | -2.20700 | 3261 ft | 251 kts | 347° |
| 2026-05-06 13:46 | 53.41853 | -2.22283 | 4151 ft | 262 kts | 309° |
| 2026-05-06 13:47 | 53.42571 | -2.25082 | 5260 ft | 264 kts | 286° |
| 2026-05-06 13:47 | 53.43131 | -2.28044 | 6254 ft | 268 kts | 292° |
| 2026-05-06 13:47 | 53.43849 | -2.30936 | 7258 ft | 270 kts | 296° |
| 2026-05-06 13:47 | 53.44657 | -2.33839 | 7983 ft | 280 kts | 296° |
| 2026-05-06 13:48 | 53.45517 | -2.36783 | 8675 ft | 282 kts | 297° |
| 2026-05-06 13:48 | 53.46399 | -2.39715 | 9699 ft | 281 kts | 297° |
| 2026-05-06 13:48 | 53.46984 | -2.42886 | 10189 ft | 289 kts | 272° |
| 2026-05-06 13:48 | 53.46771 | -2.46250 | 10496 ft | 299 kts | 261° |
| 2026-05-06 13:49 | 53.46358 | -2.49827 | 10715 ft | 326 kts | 259° |
| 2026-05-06 13:49 | 53.45910 | -2.53631 | 11141 ft | 344 kts | 260° |
| 2026-05-06 13:49 | 53.45457 | -2.57603 | 11930 ft | 349 kts | 260° |
| 2026-05-06 13:49 | 53.44872 | -2.61557 | 12825 ft | 352 kts | 248° |
| 2026-05-06 13:50 | 53.43493 | -2.64957 | 13696 ft | 357 kts | 226° |
| 2026-05-06 13:50 | 53.41456 | -2.67376 | 14508 ft | 364 kts | 206° |
| 2026-05-06 13:50 | 53.39091 | -2.68959 | 15293 ft | 368 kts | 202° |
| 2026-05-06 13:50 | 53.36667 | -2.70434 | 16018 ft | 373 kts | 201° |
| 2026-05-06 13:51 | 53.34214 | -2.71902 | 16765 ft | 376 kts | 201° |
| 2026-05-06 13:51 | 53.31740 | -2.73395 | 17496 ft | 380 kts | 202° |
| 2026-05-06 13:51 | 53.29248 | -2.74917 | 18204 ft | 383 kts | 202° |
| 2026-05-06 13:51 | 53.26736 | -2.76466 | 18888 ft | 386 kts | 202° |
| 2026-05-06 13:52 | 53.24202 | -2.78038 | 19537 ft | 390 kts | 202° |
| 2026-05-06 13:52 | 53.21642 | -2.79629 | 20173 ft | 394 kts | 202° |
| 2026-05-06 13:52 | 53.19066 | -2.81230 | 20796 ft | 397 kts | 202° |
| 2026-05-06 13:52 | 53.16466 | -2.82844 | 21405 ft | 401 kts | 202° |
| 2026-05-06 13:53 | 53.13841 | -2.84471 | 21977 ft | 404 kts | 202° |
| 2026-05-06 13:53 | 53.11192 | -2.86101 | 22525 ft | 408 kts | 201° |
| 2026-05-06 13:53 | 53.08422 | -2.87268 | 23054 ft | 414 kts | 190° |
| 2026-05-06 13:53 | 53.05530 | -2.87591 | 23601 ft | 419 kts | 181° |
| 2026-05-06 13:54 | 53.02608 | -2.87112 | 24114 ft | 425 kts | 173° |
| 2026-05-06 13:54 | 52.99685 | -2.86288 | 24614 ft | 428 kts | 172° |
| 2026-05-06 13:54 | 52.96741 | -2.85417 | 25095 ft | 431 kts | 172° |
| 2026-05-06 13:54 | 52.93777 | -2.84553 | 25569 ft | 433 kts | 172° |
| 2026-05-06 13:55 | 52.90795 | -2.83714 | 26022 ft | 436 kts | 173° |
| 2026-05-06 13:55 | 52.87797 | -2.82894 | 26457 ft | 438 kts | 173° |
| 2026-05-06 13:55 | 52.84777 | -2.82081 | 26890 ft | 441 kts | 173° |
| 2026-05-06 13:55 | 52.81746 | -2.81267 | 27300 ft | 443 kts | 173° |
| 2026-05-06 13:56 | 52.78693 | -2.80449 | 27700 ft | 446 kts | 173° |
| 2026-05-06 13:56 | 52.75669 | -2.79638 | 28095 ft | 448 kts | 173° |
| 2026-05-06 13:56 | 52.72586 | -2.78811 | 28470 ft | 450 kts | 173° |
| 2026-05-06 13:56 | 52.69489 | -2.77981 | 28821 ft | 452 kts | 173° |
| 2026-05-06 13:57 | 52.66380 | -2.77150 | 29171 ft | 454 kts | 173° |
| 2026-05-06 13:57 | 52.63253 | -2.76317 | 29541 ft | 455 kts | 173° |
| 2026-05-06 13:57 | 52.60122 | -2.75767 | 29992 ft | 451 kts | 181° |
| 2026-05-06 13:57 | 52.57012 | -2.75998 | 30498 ft | 446 kts | 187° |
| 2026-05-06 13:58 | 52.53922 | -2.76371 | 30941 ft | 445 kts | 186° |
| 2026-05-06 13:58 | 52.50826 | -2.76692 | 31335 ft | 445 kts | 186° |
| 2026-05-06 13:58 | 52.47691 | -2.76979 | 31740 ft | 445 kts | 185° |
| 2026-05-06 13:58 | 52.44646 | -2.77240 | 32146 ft | 444 kts | 185° |
| 2026-05-06 13:59 | 52.41568 | -2.77499 | 32559 ft | 442 kts | 185° |
| 2026-05-06 13:59 | 52.38497 | -2.77757 | 32938 ft | 442 kts | 185° |
| 2026-05-06 13:59 | 52.35427 | -2.78018 | 33283 ft | 442 kts | 185° |
| 2026-05-06 13:59 | 52.32360 | -2.78281 | 33667 ft | 441 kts | 185° |
| 2026-05-06 14:00 | 52.29306 | -2.78543 | 34054 ft | 439 kts | 185° |
| 2026-05-06 14:00 | 52.26259 | -2.78804 | 34404 ft | 439 kts | 185° |
| 2026-05-06 14:00 | 52.23211 | -2.79065 | 34701 ft | 439 kts | 185° |
| 2026-05-06 14:00 | 52.20158 | -2.79328 | 34984 ft | 440 kts | 185° |
| 2026-05-06 14:01 | 52.13987 | -2.79855 | 35029 ft | 446 kts | 185° |
| 2026-05-06 14:01 | 52.07832 | -2.80378 | 35017 ft | 439 kts | 185° |
| 2026-05-06 14:02 | 52.01750 | -2.80894 | 35036 ft | 438 kts | 185° |
| 2026-05-06 14:02 | 51.95656 | -2.81412 | 35028 ft | 439 kts | 185° |
| 2026-05-06 14:03 | 51.89583 | -2.81926 | 35028 ft | 441 kts | 185° |
| 2026-05-06 14:03 | 51.83456 | -2.82565 | 35019 ft | 441 kts | 188° |
| 2026-05-06 14:04 | 51.77363 | -2.83888 | 35024 ft | 442 kts | 190° |
| 2026-05-06 14:04 | 51.71275 | -2.85301 | 35015 ft | 443 kts | 190° |
| 2026-05-06 14:05 | 51.65165 | -2.86633 | 35021 ft | 443 kts | 189° |
| 2026-05-06 14:05 | 51.59044 | -2.87932 | 35016 ft | 444 kts | 189° |
| 2026-05-06 14:06 | 51.52921 | -2.89230 | 35018 ft | 444 kts | 189° |
| 2026-05-06 14:06 | 51.46807 | -2.90523 | 35017 ft | 443 kts | 189° |
| 2026-05-06 14:07 | 51.40696 | -2.91812 | 35019 ft | 443 kts | 189° |
| 2026-05-06 14:07 | 51.34584 | -2.93106 | 35022 ft | 443 kts | 189° |
| 2026-05-06 14:08 | 51.28476 | -2.94389 | 35022 ft | 443 kts | 189° |
| 2026-05-06 14:08 | 51.22415 | -2.95653 | 35018 ft | 442 kts | 189° |
| 2026-05-06 14:09 | 51.16321 | -2.96928 | 35018 ft | 442 kts | 189° |
| 2026-05-06 14:09 | 51.10219 | -2.98199 | 35011 ft | 442 kts | 189° |
| 2026-05-06 14:10 | 51.04125 | -2.99466 | 35014 ft | 442 kts | 189° |
| 2026-05-06 14:10 | 50.98018 | -3.00730 | 35010 ft | 443 kts | 189° |
| 2026-05-06 14:11 | 50.91904 | -3.01994 | 35004 ft | 443 kts | 189° |
| 2026-05-06 14:11 | 50.85788 | -3.03256 | 35018 ft | 444 kts | 189° |
| 2026-05-06 14:12 | 50.79661 | -3.04516 | 35016 ft | 444 kts | 189° |
| 2026-05-06 14:12 | 50.73524 | -3.05775 | 35013 ft | 445 kts | 189° |
| 2026-05-06 14:13 | 50.67385 | -3.07030 | 35023 ft | 445 kts | 189° |
| 2026-05-06 14:13 | 50.61236 | -3.08285 | 35023 ft | 446 kts | 189° |
| 2026-05-06 14:14 | 50.56120 | -3.09325 | 35018 ft | 446 kts | 189° |
| 2026-05-06 14:14 | 50.49960 | -3.10576 | 35020 ft | 446 kts | 189° |
| 2026-05-06 14:15 | 50.43795 | -3.11824 | 35017 ft | 447 kts | 189° |
| 2026-05-06 14:15 | 50.37631 | -3.13069 | 35016 ft | 447 kts | 189° |
| 2026-05-06 14:16 | 50.31465 | -3.14382 | 35012 ft | 447 kts | 189° |
| 2026-05-06 14:16 | 50.25311 | -3.15754 | 35015 ft | 447 kts | 189° |
| 2026-05-06 14:17 | 50.19143 | -3.17120 | 35010 ft | 447 kts | 189° |
| 2026-05-06 14:17 | 50.12979 | -3.18468 | 35008 ft | 447 kts | 189° |
| 2026-05-06 14:18 | 50.06852 | -3.19804 | 35015 ft | 447 kts | 189° |
| 2026-05-06 14:18 | 50.00688 | -3.21143 | 35005 ft | 448 kts | 189° |
| 2026-05-06 14:19 | 49.94521 | -3.22482 | 34995 ft | 448 kts | 189° |
| 2026-05-06 14:19 | 49.88347 | -3.23819 | 35007 ft | 448 kts | 189° |
| 2026-05-06 14:20 | 49.82169 | -3.25152 | 34996 ft | 448 kts | 189° |
| 2026-05-06 14:20 | 49.75938 | -3.25350 | 34994 ft | 451 kts | 172° |
| 2026-05-06 14:21 | 49.69773 | -3.23523 | 35005 ft | 452 kts | 169° |
| 2026-05-06 14:21 | 49.63610 | -3.21620 | 35004 ft | 452 kts | 169° |
| 2026-05-06 14:22 | 49.57437 | -3.19780 | 34993 ft | 452 kts | 170° |
| 2026-05-06 14:22 | 49.51256 | -3.17982 | 35001 ft | 452 kts | 170° |
| 2026-05-06 14:23 | 49.45069 | -3.16193 | 35002 ft | 452 kts | 170° |
| 2026-05-06 14:23 | 49.38883 | -3.14409 | 34997 ft | 452 kts | 170° |
| 2026-05-06 14:24 | 49.32694 | -3.12625 | 34997 ft | 453 kts | 170° |
| 2026-05-06 14:24 | 49.26502 | -3.10845 | 34996 ft | 453 kts | 170° |
| 2026-05-06 14:25 | 49.20302 | -3.09065 | 34988 ft | 453 kts | 170° |
| 2026-05-06 14:25 | 49.14144 | -3.07305 | 34993 ft | 453 kts | 170° |
| 2026-05-06 14:26 | 49.07944 | -3.05537 | 34997 ft | 453 kts | 170° |
| 2026-05-06 14:26 | 49.01747 | -3.03774 | 34988 ft | 453 kts | 170° |
| 2026-05-06 14:27 | 48.95540 | -3.02013 | 34987 ft | 454 kts | 170° |
| 2026-05-06 14:27 | 48.89334 | -3.00255 | 35002 ft | 454 kts | 170° |
| 2026-05-06 14:28 | 48.83127 | -2.98502 | 34986 ft | 454 kts | 170° |
| 2026-05-06 14:28 | 48.76925 | -2.96754 | 34986 ft | 454 kts | 170° |
| 2026-05-06 14:29 | 48.70718 | -2.94985 | 34986 ft | 454 kts | 167° |
| 2026-05-06 14:29 | 48.64629 | -2.92439 | 34995 ft | 454 kts | 163° |
| 2026-05-06 14:30 | 48.58591 | -2.89626 | 34993 ft | 454 kts | 163° |
| 2026-05-06 14:30 | 48.52580 | -2.86872 | 34987 ft | 454 kts | 163° |
| 2026-05-06 14:31 | 48.46526 | -2.84161 | 34987 ft | 454 kts | 163° |
| 2026-05-06 14:31 | 48.40463 | -2.81476 | 34985 ft | 454 kts | 163° |
| 2026-05-06 14:32 | 48.34401 | -2.78799 | 34985 ft | 454 kts | 163° |
| 2026-05-06 14:32 | 48.28332 | -2.76124 | 34988 ft | 454 kts | 163° |
| 2026-05-06 14:33 | 48.22264 | -2.73455 | 34982 ft | 455 kts | 163° |
| 2026-05-06 14:33 | 48.16189 | -2.70789 | 34980 ft | 454 kts | 163° |
| 2026-05-06 14:34 | 48.10129 | -2.68137 | 34979 ft | 454 kts | 163° |
| 2026-05-06 14:34 | 48.04063 | -2.65487 | 34975 ft | 454 kts | 163° |
| 2026-05-06 14:35 | 47.97996 | -2.62843 | 34972 ft | 454 kts | 163° |
| 2026-05-06 14:35 | 47.91929 | -2.60208 | 34973 ft | 454 kts | 163° |
| 2026-05-06 14:36 | 47.85858 | -2.57577 | 34973 ft | 454 kts | 163° |
| 2026-05-06 14:36 | 47.79787 | -2.54949 | 34970 ft | 454 kts | 163° |
| 2026-05-06 14:37 | 47.73718 | -2.52331 | 34972 ft | 454 kts | 163° |
| 2026-05-06 14:37 | 47.68037 | -2.48371 | 34973 ft | 453 kts | 143° |
| 2026-05-06 14:38 | 47.63547 | -2.41900 | 34975 ft | 451 kts | 129° |
| 2026-05-06 14:38 | 47.59498 | -2.34798 | 34962 ft | 451 kts | 129° |
| 2026-05-06 14:39 | 47.55430 | -2.27735 | 34962 ft | 451 kts | 130° |
| 2026-05-06 14:39 | 47.51329 | -2.20722 | 34964 ft | 451 kts | 130° |
| 2026-05-06 14:40 | 47.47212 | -2.13730 | 34962 ft | 451 kts | 130° |
| 2026-05-06 14:40 | 47.43115 | -2.06788 | 34964 ft | 451 kts | 130° |
| 2026-05-06 14:41 | 47.38982 | -1.99797 | 34962 ft | 452 kts | 130° |
| 2026-05-06 14:41 | 47.34847 | -1.92826 | 34963 ft | 452 kts | 130° |
| 2026-05-06 14:42 | 47.30711 | -1.85851 | 34962 ft | 452 kts | 130° |
| 2026-05-06 14:42 | 47.26567 | -1.78873 | 34964 ft | 452 kts | 130° |
| 2026-05-06 14:43 | 47.22420 | -1.71907 | 34963 ft | 453 kts | 130° |
| 2026-05-06 14:43 | 47.18261 | -1.64938 | 34965 ft | 453 kts | 130° |
| 2026-05-06 14:44 | 47.13932 | -1.58208 | 34968 ft | 454 kts | 137° |
| 2026-05-06 14:45 | 47.06794 | -1.49035 | 34962 ft | 455 kts | 138° |
| 2026-05-06 14:45 | 47.02060 | -1.42881 | 34963 ft | 455 kts | 137° |
| 2026-05-06 14:46 | 46.97340 | -1.36695 | 34962 ft | 455 kts | 138° |
| 2026-05-06 14:46 | 46.92621 | -1.30530 | 34963 ft | 455 kts | 138° |
| 2026-05-06 14:47 | 46.87897 | -1.24366 | 34964 ft | 455 kts | 138° |
| 2026-05-06 14:47 | 46.83175 | -1.18218 | 34962 ft | 455 kts | 138° |
| 2026-05-06 14:48 | 46.78447 | -1.12078 | 34963 ft | 455 kts | 138° |
| 2026-05-06 14:48 | 46.73712 | -1.05944 | 34965 ft | 455 kts | 138° |
| 2026-05-06 14:49 | 46.68975 | -0.99819 | 34961 ft | 455 kts | 138° |
| 2026-05-06 14:49 | 46.64229 | -0.93699 | 34964 ft | 456 kts | 138° |
| 2026-05-06 14:50 | 46.59515 | -0.87628 | 34962 ft | 455 kts | 138° |
| 2026-05-06 14:50 | 46.54769 | -0.81527 | 34963 ft | 456 kts | 138° |
| 2026-05-06 14:51 | 46.50002 | -0.75379 | 34964 ft | 456 kts | 138° |
| 2026-05-06 14:51 | 46.45277 | -0.69333 | 34959 ft | 456 kts | 141° |
| 2026-05-06 14:52 | 46.39823 | -0.64704 | 34963 ft | 456 kts | 160° |
| 2026-05-06 14:52 | 46.33779 | -0.61912 | 34963 ft | 456 kts | 163° |
| 2026-05-06 14:53 | 46.27705 | -0.59223 | 34952 ft | 457 kts | 163° |
| 2026-05-06 14:53 | 46.21632 | -0.56475 | 34956 ft | 458 kts | 162° |
| 2026-05-06 14:54 | 46.15564 | -0.53695 | 34949 ft | 458 kts | 162° |
| 2026-05-06 14:54 | 46.09498 | -0.50916 | 34954 ft | 457 kts | 162° |
| 2026-05-06 14:55 | 46.03433 | -0.48145 | 34952 ft | 457 kts | 162° |
| 2026-05-06 14:55 | 45.97373 | -0.45384 | 34949 ft | 457 kts | 163° |
| 2026-05-06 14:56 | 45.91305 | -0.42624 | 34952 ft | 458 kts | 163° |
| 2026-05-06 14:56 | 45.85236 | -0.39870 | 34946 ft | 458 kts | 163° |
| 2026-05-06 14:57 | 45.79199 | -0.37138 | 34946 ft | 458 kts | 163° |
| 2026-05-06 14:57 | 45.73120 | -0.34393 | 34948 ft | 458 kts | 164° |
| 2026-05-06 14:58 | 45.67040 | -0.31653 | 34939 ft | 458 kts | 163° |
| 2026-05-06 14:58 | 45.61162 | -0.28104 | 34943 ft | 459 kts | 155° |
| 2026-05-06 14:59 | 45.55441 | -0.24035 | 34933 ft | 460 kts | 154° |
| 2026-05-06 14:59 | 45.49715 | -0.19979 | 34936 ft | 459 kts | 155° |
| 2026-05-06 15:00 | 45.43968 | -0.15986 | 34943 ft | 460 kts | 155° |
| 2026-05-06 15:00 | 45.38201 | -0.12024 | 34941 ft | 460 kts | 155° |
| 2026-05-06 15:01 | 45.32434 | -0.08075 | 34931 ft | 460 kts | 155° |
| 2026-05-06 15:01 | 45.26664 | -0.04131 | 34939 ft | 460 kts | 155° |
| 2026-05-06 15:02 | 45.20894 | -0.00195 | 34933 ft | 460 kts | 155° |
| 2026-05-06 15:02 | 45.15140 | 0.03723 | 34944 ft | 459 kts | 156° |
| 2026-05-06 15:03 | 45.09399 | 0.07623 | 34932 ft | 457 kts | 156° |
| 2026-05-06 15:03 | 45.03718 | 0.11474 | 34942 ft | 454 kts | 157° |
| 2026-05-06 15:04 | 44.98032 | 0.15317 | 34940 ft | 452 kts | 157° |
| 2026-05-06 15:04 | 44.92369 | 0.19136 | 34930 ft | 450 kts | 157° |
| 2026-05-06 15:05 | 44.86721 | 0.22936 | 34931 ft | 449 kts | 157° |
| 2026-05-06 15:05 | 44.81089 | 0.26721 | 34934 ft | 449 kts | 158° |
| 2026-05-06 15:06 | 44.75448 | 0.30501 | 34946 ft | 449 kts | 158° |
| 2026-05-06 15:06 | 44.70750 | 0.33642 | 34942 ft | 450 kts | 158° |
| 2026-05-06 15:07 | 44.65076 | 0.37430 | 34924 ft | 452 kts | 157° |
| 2026-05-06 15:07 | 44.59390 | 0.41219 | 34920 ft | 453 kts | 158° |
| 2026-05-06 15:08 | 44.53695 | 0.45008 | 34924 ft | 453 kts | 158° |
| 2026-05-06 15:08 | 44.47988 | 0.48793 | 34929 ft | 454 kts | 158° |
| 2026-05-06 15:09 | 44.42280 | 0.52568 | 34939 ft | 454 kts | 158° |
| 2026-05-06 15:09 | 44.36554 | 0.56317 | 34930 ft | 454 kts | 158° |
| 2026-05-06 15:10 | 44.30839 | 0.60046 | 34936 ft | 453 kts | 158° |
| 2026-05-06 15:10 | 44.25121 | 0.63774 | 34930 ft | 453 kts | 158° |
| 2026-05-06 15:11 | 44.19414 | 0.67488 | 34940 ft | 452 kts | 158° |
| 2026-05-06 15:11 | 44.13712 | 0.71192 | 34932 ft | 452 kts | 158° |
| 2026-05-06 15:12 | 44.08021 | 0.74883 | 34944 ft | 451 kts | 158° |
| 2026-05-06 15:12 | 44.02343 | 0.78556 | 34942 ft | 450 kts | 159° |
| 2026-05-06 15:13 | 43.96704 | 0.82198 | 34950 ft | 449 kts | 159° |
| 2026-05-06 15:13 | 43.91097 | 0.86045 | 34937 ft | 453 kts | 151° |
| 2026-05-06 15:14 | 43.86438 | 0.92036 | 34944 ft | 465 kts | 130° |
| 2026-05-06 15:14 | 43.82884 | 0.99545 | 34944 ft | 467 kts | 126° |
| 2026-05-06 15:15 | 43.79393 | 1.07145 | 34943 ft | 467 kts | 127° |
| 2026-05-06 15:15 | 43.75852 | 1.14673 | 34940 ft | 467 kts | 127° |
| 2026-05-06 15:16 | 43.72284 | 1.22171 | 34944 ft | 467 kts | 128° |
| 2026-05-06 15:16 | 43.68709 | 1.29664 | 34944 ft | 467 kts | 128° |
| 2026-05-06 15:17 | 43.64864 | 1.36844 | 34948 ft | 464 kts | 134° |
| 2026-05-06 15:17 | 43.60752 | 1.43701 | 34935 ft | 464 kts | 134° |
| 2026-05-06 15:18 | 43.56649 | 1.50573 | 34946 ft | 464 kts | 134° |
| 2026-05-06 15:18 | 43.52578 | 1.57494 | 34939 ft | 465 kts | 134° |
| 2026-05-06 15:19 | 43.48519 | 1.64418 | 34939 ft | 464 kts | 134° |
| 2026-05-06 15:19 | 43.44453 | 1.71326 | 34943 ft | 464 kts | 134° |
| 2026-05-06 15:20 | 43.40381 | 1.78227 | 34940 ft | 464 kts | 134° |
| 2026-05-06 15:20 | 43.36201 | 1.84962 | 34914 ft | 458 kts | 145° |
| 2026-05-06 15:20 | 43.33586 | 1.87313 | 34948 ft | 444 kts | 161° |
| 2026-05-06 15:21 | 43.30739 | 1.88670 | 34932 ft | 435 kts | 174° |
| 2026-05-06 15:21 | 43.24796 | 1.89377 | 34939 ft | 428 kts | 182° |
| 2026-05-06 15:22 | 43.18848 | 1.89836 | 34931 ft | 429 kts | 182° |
| 2026-05-06 15:22 | 43.12891 | 1.90357 | 34918 ft | 429 kts | 181° |
| 2026-05-06 15:23 | 43.06936 | 1.90916 | 34917 ft | 429 kts | 181° |
| 2026-05-06 15:23 | 43.00992 | 1.91484 | 34915 ft | 428 kts | 182° |
| 2026-05-06 15:24 | 42.95055 | 1.92049 | 34917 ft | 427 kts | 182° |
| 2026-05-06 15:24 | 42.89131 | 1.92612 | 34912 ft | 426 kts | 182° |
| 2026-05-06 15:25 | 42.83216 | 1.93171 | 34910 ft | 426 kts | 182° |
| 2026-05-06 15:25 | 42.77318 | 1.93727 | 34917 ft | 424 kts | 182° |
| 2026-05-06 15:26 | 42.71437 | 1.94281 | 34928 ft | 424 kts | 182° |
| 2026-05-06 15:26 | 42.65571 | 1.95181 | 34905 ft | 430 kts | 172° |
| 2026-05-06 15:27 | 42.59803 | 1.97315 | 34925 ft | 430 kts | 172° |
| 2026-05-06 15:27 | 42.54028 | 1.99448 | 34914 ft | 430 kts | 172° |
| 2026-05-06 15:28 | 42.48290 | 2.01520 | 34921 ft | 429 kts | 172° |
| 2026-05-06 15:28 | 42.42480 | 2.03601 | 34909 ft | 429 kts | 172° |
| 2026-05-06 15:29 | 42.36704 | 2.05667 | 34916 ft | 429 kts | 173° |
| 2026-05-06 15:29 | 42.30926 | 2.07723 | 34912 ft | 429 kts | 173° |
| 2026-05-06 15:30 | 42.25158 | 2.09768 | 34932 ft | 428 kts | 173° |
| 2026-05-06 15:30 | 42.19395 | 2.11810 | 34923 ft | 428 kts | 173° |
| 2026-05-06 15:31 | 42.13681 | 2.13832 | 34914 ft | 427 kts | 173° |
| 2026-05-06 15:31 | 42.07926 | 2.15864 | 34918 ft | 427 kts | 173° |
| 2026-05-06 15:32 | 41.99308 | 2.18901 | 34907 ft | 427 kts | 173° |
| 2026-05-06 15:32 | 41.93557 | 2.20927 | 34915 ft | 427 kts | 173° |
| 2026-05-06 15:33 | 41.87816 | 2.22938 | 34916 ft | 426 kts | 173° |
| 2026-05-06 15:33 | 41.82078 | 2.24948 | 34922 ft | 427 kts | 173° |
| 2026-05-06 15:34 | 41.76328 | 2.26958 | 34920 ft | 427 kts | 173° |
| 2026-05-06 15:34 | 41.70564 | 2.28968 | 34918 ft | 429 kts | 173° |
| 2026-05-06 15:35 | 41.64784 | 2.30982 | 34910 ft | 429 kts | 173° |
| 2026-05-06 15:35 | 41.59003 | 2.32994 | 34917 ft | 429 kts | 173° |
| 2026-05-06 15:36 | 41.53222 | 2.35003 | 34910 ft | 429 kts | 173° |
| 2026-05-06 15:36 | 41.47482 | 2.36993 | 34923 ft | 429 kts | 173° |
| 2026-05-06 15:37 | 41.41711 | 2.38992 | 34915 ft | 427 kts | 173° |
| 2026-05-06 15:37 | 41.35984 | 2.40974 | 34876 ft | 420 kts | 173° |
| 2026-05-06 15:38 | 41.33174 | 2.41948 | 34577 ft | 413 kts | 173° |
| 2026-05-06 15:38 | 41.30421 | 2.42905 | 34221 ft | 406 kts | 173° |
| 2026-05-06 15:38 | 41.27706 | 2.43842 | 33845 ft | 401 kts | 174° |
| 2026-05-06 15:38 | 41.25024 | 2.44766 | 33469 ft | 396 kts | 174° |
| 2026-05-06 15:39 | 41.22376 | 2.45676 | 33096 ft | 391 kts | 174° |
| 2026-05-06 15:39 | 41.19762 | 2.46573 | 32724 ft | 386 kts | 174° |
| 2026-05-06 15:39 | 41.17171 | 2.47461 | 32355 ft | 384 kts | 174° |
| 2026-05-06 15:39 | 41.14564 | 2.48347 | 32004 ft | 390 kts | 174° |
| 2026-05-06 15:40 | 41.11931 | 2.49243 | 31623 ft | 389 kts | 174° |
| 2026-05-06 15:40 | 41.09327 | 2.50135 | 31244 ft | 385 kts | 174° |
| 2026-05-06 15:40 | 41.06751 | 2.51020 | 30874 ft | 381 kts | 174° |
| 2026-05-06 15:40 | 41.04198 | 2.51895 | 30509 ft | 377 kts | 174° |
| 2026-05-06 15:41 | 41.01674 | 2.52760 | 30151 ft | 373 kts | 174° |
| 2026-05-06 15:41 | 40.99173 | 2.53615 | 29791 ft | 369 kts | 174° |
| 2026-05-06 15:41 | 40.96694 | 2.54459 | 29440 ft | 369 kts | 174° |
| 2026-05-06 15:41 | 40.94186 | 2.55307 | 29077 ft | 374 kts | 174° |
| 2026-05-06 15:42 | 40.91670 | 2.56161 | 28700 ft | 372 kts | 174° |
| 2026-05-06 15:42 | 40.89179 | 2.57011 | 28313 ft | 368 kts | 174° |
| 2026-05-06 15:42 | 40.86718 | 2.57850 | 27944 ft | 364 kts | 174° |
| 2026-05-06 15:42 | 40.84279 | 2.58681 | 27576 ft | 360 kts | 174° |
| 2026-05-06 15:43 | 40.81858 | 2.59503 | 27213 ft | 357 kts | 174° |
| 2026-05-06 15:43 | 40.79460 | 2.60317 | 26866 ft | 356 kts | 174° |
| 2026-05-06 15:43 | 40.77047 | 2.61131 | 26505 ft | 360 kts | 173° |
| 2026-05-06 15:43 | 40.74619 | 2.61950 | 26138 ft | 359 kts | 173° |
| 2026-05-06 15:44 | 40.72210 | 2.62767 | 25768 ft | 355 kts | 173° |
| 2026-05-06 15:44 | 40.69834 | 2.63572 | 25409 ft | 351 kts | 173° |
| 2026-05-06 15:44 | 40.67478 | 2.64370 | 25053 ft | 348 kts | 173° |
| 2026-05-06 15:44 | 40.65137 | 2.65161 | 24703 ft | 346 kts | 173° |
| 2026-05-06 15:45 | 40.62813 | 2.65944 | 24353 ft | 344 kts | 173° |
| 2026-05-06 15:45 | 40.60515 | 2.66717 | 24018 ft | 347 kts | 173° |
| 2026-05-06 15:45 | 40.58168 | 2.67506 | 23661 ft | 348 kts | 173° |
| 2026-05-06 15:45 | 40.55829 | 2.68297 | 23299 ft | 345 kts | 173° |
| 2026-05-06 15:46 | 40.53517 | 2.69077 | 22945 ft | 341 kts | 172° |
| 2026-05-06 15:46 | 40.51226 | 2.69849 | 22596 ft | 339 kts | 172° |
| 2026-05-06 15:46 | 40.48979 | 2.70838 | 22246 ft | 346 kts | 161° |
| 2026-05-06 15:46 | 40.46849 | 2.72321 | 21923 ft | 347 kts | 158° |
| 2026-05-06 15:47 | 40.44757 | 2.73893 | 21578 ft | 347 kts | 157° |
| 2026-05-06 15:47 | 40.42664 | 2.75475 | 21236 ft | 348 kts | 157° |
| 2026-05-06 15:47 | 40.40560 | 2.77048 | 20886 ft | 347 kts | 157° |
| 2026-05-06 15:47 | 40.38471 | 2.78591 | 20539 ft | 343 kts | 157° |
| 2026-05-06 15:48 | 40.36397 | 2.80109 | 20197 ft | 339 kts | 158° |
| 2026-05-06 15:48 | 40.34293 | 2.81424 | 19750 ft | 332 kts | 168° |
| 2026-05-06 15:48 | 40.32060 | 2.82005 | 19267 ft | 325 kts | 182° |
| 2026-05-06 15:48 | 40.29818 | 2.82038 | 18858 ft | 321 kts | 186° |
| 2026-05-06 15:49 | 40.27590 | 2.82023 | 18467 ft | 319 kts | 186° |
| 2026-05-06 15:49 | 40.25376 | 2.82011 | 18065 ft | 318 kts | 185° |
| 2026-05-06 15:49 | 40.23169 | 2.82005 | 17665 ft | 317 kts | 185° |
| 2026-05-06 15:49 | 40.20970 | 2.82004 | 17290 ft | 315 kts | 185° |
| 2026-05-06 15:50 | 40.18784 | 2.82006 | 16904 ft | 314 kts | 185° |
| 2026-05-06 15:50 | 40.16605 | 2.82010 | 16522 ft | 312 kts | 185° |
| 2026-05-06 15:50 | 40.14437 | 2.82016 | 16125 ft | 311 kts | 184° |
| 2026-05-06 15:50 | 40.12272 | 2.82021 | 15731 ft | 310 kts | 184° |
| 2026-05-06 15:51 | 40.10119 | 2.82029 | 15358 ft | 309 kts | 184° |
| 2026-05-06 15:51 | 40.07971 | 2.82036 | 15002 ft | 307 kts | 184° |
| 2026-05-06 15:51 | 40.05879 | 2.82045 | 14941 ft | 295 kts | 184° |
| 2026-05-06 15:51 | 40.03873 | 2.82056 | 14923 ft | 282 kts | 184° |
| 2026-05-06 15:52 | 40.01949 | 2.82065 | 14719 ft | 276 kts | 184° |
| 2026-05-06 15:52 | 39.99967 | 2.82066 | 13850 ft | 295 kts | 184° |
| 2026-05-06 15:52 | 39.97879 | 2.82066 | 13271 ft | 302 kts | 183° |
| 2026-05-06 15:52 | 39.95779 | 2.82073 | 12893 ft | 301 kts | 183° |
| 2026-05-06 15:53 | 39.93694 | 2.82082 | 12562 ft | 299 kts | 183° |
| 2026-05-06 15:53 | 39.91626 | 2.82090 | 12235 ft | 296 kts | 183° |
| 2026-05-06 15:53 | 39.89571 | 2.82098 | 11917 ft | 293 kts | 183° |
| 2026-05-06 15:53 | 39.87543 | 2.82105 | 11603 ft | 291 kts | 182° |
| 2026-05-06 15:54 | 39.85511 | 2.82107 | 11309 ft | 292 kts | 185° |
| 2026-05-06 15:54 | 39.83626 | 2.81454 | 11194 ft | 277 kts | 214° |
| 2026-05-06 15:54 | 39.82234 | 2.79750 | 10981 ft | 276 kts | 230° |
| 2026-05-06 15:54 | 39.80959 | 2.77839 | 10699 ft | 284 kts | 230° |
| 2026-05-06 15:55 | 39.80200 | 2.76702 | 10518 ft | 287 kts | 230° |
| 2026-05-06 15:55 | 39.78884 | 2.74735 | 10198 ft | 288 kts | 230° |
| 2026-05-06 15:55 | 39.77584 | 2.72802 | 10072 ft | 279 kts | 230° |
| 2026-05-06 15:55 | 39.76316 | 2.70922 | 9801 ft | 276 kts | 229° |
| 2026-05-06 15:56 | 39.75058 | 2.69058 | 9493 ft | 273 kts | 230° |
| 2026-05-06 15:56 | 39.73804 | 2.67201 | 9224 ft | 276 kts | 229° |
| 2026-05-06 15:56 | 39.72522 | 2.65315 | 8948 ft | 281 kts | 229° |
| 2026-05-06 15:56 | 39.71232 | 2.63420 | 8631 ft | 279 kts | 229° |
| 2026-05-06 15:57 | 39.69948 | 2.61535 | 8330 ft | 277 kts | 229° |
| 2026-05-06 15:57 | 39.68676 | 2.59669 | 8030 ft | 275 kts | 229° |
| 2026-05-06 15:57 | 39.67411 | 2.57813 | 7743 ft | 274 kts | 229° |
| 2026-05-06 15:57 | 39.66151 | 2.55972 | 7450 ft | 272 kts | 229° |
| 2026-05-06 15:58 | 39.64900 | 2.54138 | 7153 ft | 270 kts | 229° |
| 2026-05-06 15:58 | 39.63657 | 2.52315 | 6873 ft | 269 kts | 229° |
| 2026-05-06 15:58 | 39.62419 | 2.50501 | 6582 ft | 269 kts | 229° |
| 2026-05-06 15:58 | 39.61168 | 2.48672 | 6301 ft | 273 kts | 229° |
| 2026-05-06 15:59 | 39.59915 | 2.46842 | 6006 ft | 271 kts | 229° |
| 2026-05-06 15:59 | 39.58665 | 2.45019 | 5726 ft | 269 kts | 229° |
| 2026-05-06 15:59 | 39.57425 | 2.43208 | 5444 ft | 268 kts | 229° |
| 2026-05-06 15:59 | 39.56022 | 2.41645 | 5153 ft | 266 kts | 214° |
| 2026-05-06 16:00 | 39.54659 | 2.40051 | 5036 ft | 264 kts | 230° |
| 2026-05-06 16:00 | 39.53485 | 2.38226 | 5004 ft | 264 kts | 230° |
| 2026-05-06 16:00 | 39.52240 | 2.36441 | 4871 ft | 271 kts | 220° |
| 2026-05-06 16:00 | 39.50564 | 2.35406 | 4836 ft | 267 kts | 190° |
| 2026-05-06 16:01 | 39.48737 | 2.35525 | 4838 ft | 265 kts | 162° |
| 2026-05-06 16:01 | 39.47170 | 2.36763 | 4845 ft | 268 kts | 134° |
| 2026-05-06 16:01 | 39.46185 | 2.38834 | 4563 ft | 280 kts | 107° |
| 2026-05-06 16:01 | 39.45904 | 2.41292 | 4413 ft | 272 kts | 94° |
| 2026-05-06 16:02 | 39.45814 | 2.43699 | 4269 ft | 265 kts | 92° |
| 2026-05-06 16:02 | 39.45744 | 2.46037 | 4145 ft | 263 kts | 92° |
| 2026-05-06 16:02 | 39.45672 | 2.48430 | 4034 ft | 259 kts | 92° |
| 2026-05-06 16:02 | 39.45612 | 2.50664 | 3806 ft | 248 kts | 89° |
| 2026-05-06 16:03 | 39.46035 | 2.52811 | 3325 ft | 246 kts | 58° |
| 2026-05-06 16:03 | 39.46987 | 2.54559 | 2937 ft | 234 kts | 57° |
| 2026-05-06 16:03 | 39.47807 | 2.56301 | 2623 ft | 219 kts | 59° |
| 2026-05-06 16:03 | 39.48563 | 2.57946 | 2340 ft | 207 kts | 59° |
| 2026-05-06 16:04 | 39.49278 | 2.59477 | 2073 ft | 190 kts | 58° |
| 2026-05-06 16:04 | 39.49937 | 2.60882 | 1851 ft | 173 kts | 58° |
| 2026-05-06 16:04 | 39.50535 | 2.62154 | 1618 ft | 159 kts | 58° |
| 2026-05-06 16:04 | 39.51090 | 2.63337 | 1415 ft | 151 kts | 57° |
| 2026-05-06 16:05 | 39.51634 | 2.64494 | 1211 ft | 150 kts | 57° |
| 2026-05-06 16:05 | 39.52178 | 2.65651 | 1018 ft | 151 kts | 57° |
| 2026-05-06 16:05 | 39.52714 | 2.66809 | 815 ft | 151 kts | 57° |
| 2026-05-06 16:05 | 39.53268 | 2.67970 | 620 ft | 152 kts | 57° |
| 2026-05-06 16:06 | 39.53814 | 2.69136 | 414 ft | 151 kts | 59° |
| 2026-05-06 16:06 | 39.54359 | 2.70301 | 215 ft | 151 kts | 59° |
| 2026-05-06 16:06 | 39.54899 | 2.71450 | 33 ft | 142 kts | 58° |
| 2026-05-06 16:06 | 39.55360 | 2.72429 | 29 ft | 108 kts | 59° |
| 2026-05-06 16:07 | 39.55658 | 2.73062 | 29 ft | 56 kts | 58° |
| 2026-05-06 16:07 | 39.55720 | 2.73348 | 29 ft | 15 kts | 88° |
| 2026-05-06 16:07 | 39.55706 | 2.73430 | 29 ft | 7 kts | 123° |
| 2026-05-06 16:07 | 39.55671 | 2.73465 | 29 ft | 3 kts | 146° |
| 2026-05-06 16:08 | 39.55662 | 2.73472 | 29 ft | 0 kts | 147° |
| 2026-05-06 16:08 | 39.55655 | 2.73477 | 29 ft | 3 kts | 155° |
| 2026-05-06 16:09 | 39.55640 | 2.73465 | 29 ft | 4 kts | 221° |
| 2026-05-06 16:09 | 39.55621 | 2.73433 | 29 ft | 7 kts | 245° |
| 2026-05-06 16:09 | 39.55587 | 2.73355 | 29 ft | 13 kts | 239° |
| 2026-05-06 16:09 | 39.55533 | 2.73240 | 29 ft | 16 kts | 238° |
| 2026-05-06 16:10 | 39.55470 | 2.73109 | 29 ft | 18 kts | 238° |
| 2026-05-06 16:10 | 39.55403 | 2.72966 | 29 ft | 19 kts | 238° |
| 2026-05-06 16:10 | 39.55335 | 2.72823 | 29 ft | 20 kts | 239° |
| 2026-05-06 16:10 | 39.55262 | 2.72669 | 29 ft | 20 kts | 235° |
| 2026-05-06 16:11 | 39.55193 | 2.72520 | 29 ft | 14 kts | 239° |
| 2026-05-06 16:11 | 39.55120 | 2.72493 | 29 ft | 14 kts | 150° |
| 2026-05-06 16:11 | 39.55041 | 2.72567 | 29 ft | 13 kts | 132° |
| 2026-05-06 16:11 | 39.54981 | 2.72620 | 29 ft | 5 kts | 148° |
| 2026-05-06 16:12 | 39.54971 | 2.72628 | 29 ft | 0 kts | 149° |